Time;durP1;ratioP1;P1;durP2;ratioP2;P2;SDS_P1;SDS_P2;PMS_P1;PMS_P2;Temp;Humidity;BMP_temperature;BMP_pressure;BME280_temperature;BME280_humidity;BME280_pressure;Samples;Min_cycle;Max_cycle;Signal;HPM_P1;HPM_P2
2021/05/19 00:00:53;;;;;;;19.63;7.17;;;;;;;;;;5090723;28;20031;-67
2021/05/19 00:03:18;;;;;;;20.10;6.80;;;;;;;;;;5092057;28;20032;-68
2021/05/19 00:05:43;;;;;;;16.60;6.50;;;;;;;;;;5090218;28;20036;-67
2021/05/19 00:08:09;;;;;;;18.87;7.40;;;;;;;;;;5082996;28;20024;-67
2021/05/19 00:10:35;;;;;;;18.93;6.80;;;;;;;;;;5082859;28;20035;-67
2021/05/19 00:13:01;;;;;;;20.33;7.13;;;;;;;;;;5088245;28;20024;-67
2021/05/19 00:15:26;;;;;;;18.77;7.30;;;;;;;;;;5093842;28;20491;-67
2021/05/19 00:17:51;;;;;;;16.17;6.33;;;;;;;;;;5099589;28;20036;-67
2021/05/19 00:20:18;;;;;;;17.33;6.67;;;;;;;;;;5093861;28;20047;-67
2021/05/19 00:22:43;;;;;;;15.57;6.13;;;;;;;;;;5088452;28;20035;-67
2021/05/19 00:25:09;;;;;;;13.57;6.20;;;;;;;;;;5091041;28;20024;-67
2021/05/19 00:27:34;;;;;;;14.47;6.23;;;;;;;;;;5091781;28;20070;-68
2021/05/19 00:30:01;;;;;;;15.40;6.17;;;;;;;;;;5090041;28;20106;-67
2021/05/19 00:32:26;;;;;;;16.03;5.90;;;;;;;;;;5089073;28;20039;-67
2021/05/19 00:34:52;;;;;;;16.60;6.70;;;;;;;;;;5083031;28;20028;-67
2021/05/19 00:37:17;;;;;;;16.40;6.17;;;;;;;;;;5083966;28;20471;-67
2021/05/19 00:39:46;;;;;;;17.23;6.97;;;;;;;;;;5091981;28;20028;-67
2021/05/19 00:42:15;;;;;;;17.17;6.40;;;;;;;;;;5091458;28;20046;-67
2021/05/19 00:44:40;;;;;;;17.60;6.47;;;;;;;;;;5102833;28;20020;-67
2021/05/19 00:47:06;;;;;;;18.93;6.70;;;;;;;;;;5092918;28;20548;-67
2021/05/19 00:49:31;;;;;;;18.83;6.77;;;;;;;;;;5090199;28;20078;-67
2021/05/19 00:51:56;;;;;;;15.03;6.17;;;;;;;;;;5085631;28;20032;-67
2021/05/19 00:54:22;;;;;;;17.50;6.67;;;;;;;;;;5089025;28;20067;-67
2021/05/19 00:56:47;;;;;;;19.03;7.23;;;;;;;;;;5092230;28;20028;-67
2021/05/19 00:59:13;;;;;;;20.37;6.93;;;;;;;;;;5093352;28;20034;-67
2021/05/19 01:01:39;;;;;;;19.27;8.00;;;;;;;;;;5097721;22;20033;-71
2021/05/19 01:04:05;;;;;;;20.13;7.40;;;;;;;;;;5089445;28;20028;-72
2021/05/19 01:06:54;;;;;;;22.53;7.80;;;;;;;;;;5080705;28;20429;-72
2021/05/19 01:09:35;;;;;;;19.93;7.03;;;;;;;;;;5076486;28;20078;-72
2021/05/19 01:12:01;;;;;;;23.90;7.77;;;;;;;;;;5075040;28;20025;-72
2021/05/19 01:14:26;;;;;;;30.63;8.57;;;;;;;;;;5075160;28;20451;-72
2021/05/19 01:16:52;;;;;;;28.40;8.20;;;;;;;;;;5074648;28;20039;-72
2021/05/19 01:19:18;;;;;;;29.60;8.10;;;;;;;;;;5079997;28;20024;-72
2021/05/19 01:21:45;;;;;;;33.63;8.67;;;;;;;;;;5076985;28;20028;-72
2021/05/19 01:24:11;;;;;;;29.63;7.67;;;;;;;;;;5076866;28;20077;-72
2021/05/19 01:26:36;;;;;;;37.70;8.17;;;;;;;;;;5072834;28;20103;-72
2021/05/19 01:29:02;;;;;;;35.90;8.63;;;;;;;;;;5081490;28;20133;-72
2021/05/19 01:31:27;;;;;;;26.80;8.30;;;;;;;;;;5079021;28;20379;-72
2021/05/19 01:33:53;;;;;;;30.17;7.97;;;;;;;;;;5080441;28;20013;-72
2021/05/19 01:36:19;;;;;;;34.23;9.17;;;;;;;;;;5078744;28;20036;-72
2021/05/19 01:38:44;;;;;;;29.13;8.27;;;;;;;;;;5078108;28;20453;-73
2021/05/19 01:41:09;;;;;;;32.13;9.63;;;;;;;;;;5078396;28;20024;-73
2021/05/19 01:43:35;;;;;;;34.03;9.73;;;;;;;;;;5076407;28;20121;-73
2021/05/19 01:46:01;;;;;;;34.40;9.40;;;;;;;;;;5068940;28;20024;-73
2021/05/19 01:48:27;;;;;;;32.50;8.30;;;;;;;;;;5077470;28;20036;-73
2021/05/19 01:50:53;;;;;;;43.23;9.70;;;;;;;;;;5079081;28;20027;-73
2021/05/19 01:53:19;;;;;;;37.37;9.13;;;;;;;;;;5073140;28;20024;-73
2021/05/19 01:55:44;;;;;;;48.33;10.00;;;;;;;;;;5079003;28;20094;-73
2021/05/19 01:58:09;;;;;;;38.43;9.43;;;;;;;;;;5071979;28;20467;-73
2021/05/19 02:00:35;;;;;;;37.70;9.60;;;;;;;;;;5076231;28;20060;-73
2021/05/19 02:03:02;;;;;;;37.37;8.97;;;;;;;;;;5078538;28;20044;-73
2021/05/19 02:05:28;;;;;;;42.83;9.93;;;;;;;;;;5082025;28;20032;-73
2021/05/19 02:07:54;;;;;;;38.43;10.10;;;;;;;;;;5078984;28;20515;-73
2021/05/19 02:10:19;;;;;;;43.17;9.60;;;;;;;;;;5075073;28;20047;-73
2021/05/19 02:12:44;;;;;;;45.37;9.60;;;;;;;;;;5076991;28;20032;-73
2021/05/19 02:15:10;;;;;;;52.43;9.93;;;;;;;;;;5082599;28;20032;-68
2021/05/19 02:17:35;;;;;;;64.07;11.13;;;;;;;;;;5072319;28;20375;-68
2021/05/19 02:20:27;;;;;;;60.87;11.17;;;;;;;;;;5075976;28;20462;-68
2021/05/19 02:22:52;;;;;;;74.13;11.63;;;;;;;;;;5069663;28;20036;-68
2021/05/19 02:25:18;;;;;;;84.60;10.83;;;;;;;;;;5072550;28;20032;-68
2021/05/19 02:27:44;;;;;;;99.17;12.83;;;;;;;;;;5079126;28;20020;-68
2021/05/19 02:30:10;;;;;;;87.37;12.30;;;;;;;;;;5085773;28;20401;-68
2021/05/19 02:32:36;;;;;;;67.13;11.60;;;;;;;;;;5075286;28;20031;-68
2021/05/19 02:35:01;;;;;;;89.80;12.67;;;;;;;;;;5072287;28;20029;-68
2021/05/19 02:37:27;;;;;;;54.80;11.47;;;;;;;;;;5072453;28;20024;-68
2021/05/19 02:39:52;;;;;;;77.70;12.10;;;;;;;;;;5080983;28;20044;-68
2021/05/19 02:42:17;;;;;;;65.97;10.77;;;;;;;;;;5074126;28;20032;-68
2021/05/19 02:44:43;;;;;;;74.07;11.93;;;;;;;;;;5078773;28;20043;-68
2021/05/19 02:47:08;;;;;;;61.73;11.27;;;;;;;;;;5073349;28;20032;-68
2021/05/19 02:49:33;;;;;;;72.63;11.60;;;;;;;;;;5073018;28;20024;-68
2021/05/19 02:51:59;;;;;;;71.47;11.57;;;;;;;;;;5081155;28;20024;-68
2021/05/19 02:54:24;;;;;;;53.43;10.53;;;;;;;;;;5081068;28;20122;-68
2021/05/19 02:56:49;;;;;;;59.47;10.40;;;;;;;;;;5082413;28;20020;-72
2021/05/19 02:59:14;;;;;;;52.73;10.67;;;;;;;;;;5072286;28;20043;-72
2021/05/19 03:01:40;;;;;;;78.50;10.77;;;;;;;;;;5072287;28;20119;-72
2021/05/19 03:04:06;;;;;;;54.90;9.93;;;;;;;;;;5076225;28;20028;-72
2021/05/19 03:06:31;;;;;;;62.17;10.10;;;;;;;;;;5074459;28;20050;-72
2021/05/19 03:08:56;;;;;;;64.30;10.63;;;;;;;;;;5082082;28;20028;-72
2021/05/19 03:11:22;;;;;;;49.63;9.87;;;;;;;;;;5083749;28;20044;-72
2021/05/19 03:13:47;;;;;;;49.00;9.87;;;;;;;;;;5075764;28;20115;-72
2021/05/19 03:16:12;;;;;;;73.77;9.93;;;;;;;;;;5074190;28;20079;-72
2021/05/19 03:18:38;;;;;;;48.13;9.50;;;;;;;;;;5072432;28;20078;-72
2021/05/19 03:21:04;;;;;;;67.83;10.70;;;;;;;;;;5077491;28;20031;-72
2021/05/19 03:23:30;;;;;;;53.77;10.00;;;;;;;;;;5070642;28;20028;-72
2021/05/19 03:25:55;;;;;;;79.17;10.10;;;;;;;;;;5077170;28;20467;-72
2021/05/19 03:28:21;;;;;;;69.77;9.77;;;;;;;;;;5084425;28;20035;-72
2021/05/19 03:30:46;;;;;;;55.70;9.53;;;;;;;;;;5083479;28;20020;-72
2021/05/19 03:33:12;;;;;;;48.13;9.43;;;;;;;;;;5070265;28;20029;-72
2021/05/19 03:35:37;;;;;;;45.80;9.57;;;;;;;;;;5070950;28;20028;-72
2021/05/19 03:38:03;;;;;;;65.00;11.00;;;;;;;;;;5075118;28;20032;-73
2021/05/19 03:40:28;;;;;;;53.77;10.67;;;;;;;;;;5076550;28;20742;-73
2021/05/19 03:42:53;;;;;;;87.60;10.50;;;;;;;;;;5073148;28;20078;-73
2021/05/19 03:45:20;;;;;;;52.87;9.43;;;;;;;;;;5069890;28;20028;-73
2021/05/19 03:47:48;;;;;;;70.67;10.30;;;;;;;;;;5070001;28;20040;-73
2021/05/19 03:50:14;;;;;;;61.97;10.20;;;;;;;;;;5078475;28;20036;-73
2021/05/19 03:52:39;;;;;;;48.97;10.20;;;;;;;;;;5081202;28;20460;-73
2021/05/19 03:55:06;;;;;;;49.67;9.40;;;;;;;;;;5074578;28;20020;-73
2021/05/19 03:57:32;;;;;;;60.60;10.30;;;;;;;;;;5082313;28;20031;-73
2021/05/19 03:59:57;;;;;;;48.73;9.97;;;;;;;;;;5072697;28;20028;-73
2021/05/19 04:02:22;;;;;;;61.33;10.30;;;;;;;;;;5075405;28;20520;-73
2021/05/19 04:04:47;;;;;;;54.70;10.83;;;;;;;;;;5070581;28;20040;-73
2021/05/19 04:07:14;;;;;;;44.60;9.40;;;;;;;;;;5069826;28;20056;-73
2021/05/19 04:09:39;;;;;;;40.33;9.53;;;;;;;;;;5072327;28;20492;-73
2021/05/19 04:12:05;;;;;;;46.03;10.67;;;;;;;;;;5075884;28;20020;-73
2021/05/19 04:14:30;;;;;;;38.47;9.90;;;;;;;;;;5071547;28;20539;-73
2021/05/19 04:16:56;;;;;;;40.03;8.67;;;;;;;;;;5077162;28;20468;-73
2021/05/19 04:19:21;;;;;;;44.97;9.50;;;;;;;;;;5075589;28;20443;-73
2021/05/19 04:21:46;;;;;;;49.23;9.13;;;;;;;;;;5085826;28;20027;-73
2021/05/19 04:24:11;;;;;;;31.73;9.93;;;;;;;;;;5078460;28;20028;-73
2021/05/19 04:26:37;;;;;;;57.50;9.80;;;;;;;;;;5074892;28;20021;-73
2021/05/19 04:29:03;;;;;;;37.00;9.17;;;;;;;;;;5075276;28;20024;-73
2021/05/19 04:31:28;;;;;;;42.37;9.83;;;;;;;;;;5079262;28;20016;-73
2021/05/19 04:33:53;;;;;;;28.77;9.33;;;;;;;;;;5075045;28;20468;-73
2021/05/19 04:36:19;;;;;;;32.73;9.77;;;;;;;;;;5082218;28;20406;-73
2021/05/19 04:38:44;;;;;;;34.90;9.90;;;;;;;;;;5083166;28;20021;-73
2021/05/19 04:41:09;;;;;;;27.37;8.70;;;;;;;;;;5079388;28;20476;-73
2021/05/19 04:43:34;;;;;;;31.10;8.80;;;;;;;;;;5080695;28;20028;-73
2021/05/19 04:46:00;;;;;;;32.57;8.80;;;;;;;;;;5077880;28;20027;-73
2021/05/19 04:48:27;;;;;;;25.30;8.30;;;;;;;;;;5074368;28;20019;-73
2021/05/19 04:50:52;;;;;;;25.80;8.47;;;;;;;;;;5085785;28;20027;-73
2021/05/19 04:53:17;;;;;;;28.63;8.77;;;;;;;;;;5074222;28;20468;-73
2021/05/19 04:55:42;;;;;;;21.57;8.20;;;;;;;;;;5072531;28;20487;-73
2021/05/19 04:58:08;;;;;;;19.70;7.53;;;;;;;;;;5077844;28;20137;-72
2021/05/19 05:00:35;;;;;;;21.70;8.67;;;;;;;;;;5073105;28;20036;-72
2021/05/19 05:03:01;;;;;;;27.67;7.47;;;;;;;;;;5087514;28;20396;-72
2021/05/19 05:05:26;;;;;;;22.30;7.50;;;;;;;;;;5076130;28;20020;-72
2021/05/19 05:07:52;;;;;;;24.23;6.80;;;;;;;;;;5078875;28;21429;-73
2021/05/19 05:10:17;;;;;;;23.23;7.40;;;;;;;;;;5074151;28;20108;-73
2021/05/19 05:12:44;;;;;;;19.27;8.67;;;;;;;;;;5072520;28;20017;-73
2021/05/19 05:15:11;;;;;;;23.80;8.13;;;;;;;;;;5075353;28;20380;-73
2021/05/19 05:17:36;;;;;;;21.67;7.57;;;;;;;;;;5078140;28;20063;-73
2021/05/19 05:20:02;;;;;;;20.33;7.77;;;;;;;;;;5075057;28;20047;-73
2021/05/19 05:22:28;;;;;;;19.03;8.30;;;;;;;;;;5072786;28;20103;-73
2021/05/19 05:24:53;;;;;;;17.33;8.00;;;;;;;;;;5072542;28;20095;-73
2021/05/19 05:27:18;;;;;;;19.07;7.80;;;;;;;;;;5072379;28;20039;-72
2021/05/19 05:29:43;;;;;;;14.63;6.67;;;;;;;;;;5085918;28;20032;-72
2021/05/19 05:32:09;;;;;;;15.50;7.40;;;;;;;;;;5071767;28;20016;-72
2021/05/19 05:34:34;;;;;;;15.07;7.20;;;;;;;;;;5076008;28;20062;-72
2021/05/19 05:36:59;;;;;;;14.53;6.20;;;;;;;;;;5074756;28;20380;-72
2021/05/19 05:39:25;;;;;;;11.30;6.23;;;;;;;;;;5076514;28;20098;-72
2021/05/19 05:41:50;;;;;;;11.87;5.80;;;;;;;;;;5080045;28;20104;-72
2021/05/19 05:44:16;;;;;;;11.87;6.07;;;;;;;;;;5077285;28;20536;-72
2021/05/19 05:46:41;;;;;;;12.07;6.63;;;;;;;;;;5076644;28;20073;-72
2021/05/19 05:49:07;;;;;;;12.70;6.03;;;;;;;;;;5085585;28;20029;-72
2021/05/19 05:51:33;;;;;;;13.53;6.77;;;;;;;;;;5076099;28;20020;-73
2021/05/19 05:53:58;;;;;;;11.80;6.57;;;;;;;;;;5071450;28;20020;-72
2021/05/19 05:56:23;;;;;;;12.70;5.60;;;;;;;;;;5073460;28;20380;-72
2021/05/19 05:58:48;;;;;;;11.00;5.67;;;;;;;;;;5081720;28;20025;-72
2021/05/19 06:01:14;;;;;;;12.93;6.20;;;;;;;;;;5075192;28;20028;-72
2021/05/19 06:03:39;;;;;;;12.10;6.43;;;;;;;;;;5084656;28;20032;-72
2021/05/19 06:06:05;;;;;;;12.93;6.03;;;;;;;;;;5074259;28;20080;-72
2021/05/19 06:08:30;;;;;;;11.63;6.07;;;;;;;;;;5079979;28;20550;-73
2021/05/19 06:10:56;;;;;;;14.17;5.90;;;;;;;;;;5079717;28;20031;-73
2021/05/19 06:13:21;;;;;;;11.17;5.13;;;;;;;;;;5072879;28;20024;-72
2021/05/19 06:15:47;;;;;;;10.40;5.27;;;;;;;;;;5079338;28;20016;-72
2021/05/19 06:18:12;;;;;;;9.80;5.33;;;;;;;;;;5072659;28;20112;-72
2021/05/19 06:20:37;;;;;;;12.60;5.50;;;;;;;;;;5071978;28;20064;-72
2021/05/19 06:23:02;;;;;;;8.70;4.97;;;;;;;;;;5084449;28;20016;-72
2021/05/19 06:25:28;;;;;;;9.67;4.53;;;;;;;;;;5077365;28;20023;-73
2021/05/19 06:27:53;;;;;;;11.90;5.13;;;;;;;;;;5080000;28;20405;-73
2021/05/19 06:30:18;;;;;;;10.70;5.50;;;;;;;;;;5080789;28;20095;-73
2021/05/19 06:32:44;;;;;;;11.07;5.23;;;;;;;;;;5071959;28;20040;-73
2021/05/19 06:35:09;;;;;;;10.50;5.57;;;;;;;;;;5071032;28;20032;-72
2021/05/19 06:37:34;;;;;;;13.37;6.20;;;;;;;;;;5065983;28;20199;-72
2021/05/19 06:40:00;;;;;;;14.83;6.70;;;;;;;;;;5072680;28;20103;-72
2021/05/19 06:42:25;;;;;;;13.13;6.00;;;;;;;;;;5075286;28;20031;-72
2021/05/19 06:44:50;;;;;;;13.27;6.60;;;;;;;;;;5078442;28;20031;-72
2021/05/19 06:47:16;;;;;;;13.00;6.20;;;;;;;;;;5072106;28;20070;-72
2021/05/19 06:49:42;;;;;;;13.03;6.17;;;;;;;;;;5071794;28;20024;-72
2021/05/19 06:52:07;;;;;;;13.07;5.93;;;;;;;;;;5072172;28;20039;-72
2021/05/19 06:54:32;;;;;;;15.60;6.40;;;;;;;;;;5080382;28;20055;-72
2021/05/19 06:56:58;;;;;;;10.13;5.20;;;;;;;;;;5071296;28;20020;-72
2021/05/19 06:59:23;;;;;;;10.80;5.33;;;;;;;;;;5078814;28;20491;-72
2021/05/19 07:01:48;;;;;;;9.53;4.70;;;;;;;;;;5070740;28;20505;-72
2021/05/19 07:04:14;;;;;;;10.87;4.90;;;;;;;;;;5077607;28;20032;-72
2021/05/19 07:06:40;;;;;;;7.90;4.20;;;;;;;;;;5071638;28;20390;-72
2021/05/19 07:09:05;;;;;;;7.47;3.57;;;;;;;;;;5075581;28;20025;-73
2021/05/19 07:11:31;;;;;;;10.37;4.57;;;;;;;;;;5071332;28;20427;-72
2021/05/19 07:13:58;;;;;;;10.43;4.20;;;;;;;;;;5074261;28;20032;-72
2021/05/19 07:16:24;;;;;;;9.20;4.10;;;;;;;;;;5072059;28;20059;-72
2021/05/19 07:18:50;;;;;;;9.57;4.00;;;;;;;;;;5072219;28;20020;-72
2021/05/19 07:21:16;;;;;;;8.60;4.13;;;;;;;;;;5071238;28;20039;-72
2021/05/19 07:23:41;;;;;;;10.60;3.80;;;;;;;;;;5075140;28;20456;-72
2021/05/19 07:26:06;;;;;;;10.40;4.30;;;;;;;;;;5074757;28;20024;-73
2021/05/19 07:28:31;;;;;;;8.03;4.30;;;;;;;;;;5071920;28;20091;-73
2021/05/19 07:30:57;;;;;;;8.70;4.10;;;;;;;;;;5071773;28;20430;-72
2021/05/19 07:33:22;;;;;;;8.87;4.10;;;;;;;;;;5071512;28;20103;-72
2021/05/19 07:35:48;;;;;;;10.03;4.00;;;;;;;;;;5061602;28;20056;-72
2021/05/19 07:38:13;;;;;;;9.47;4.00;;;;;;;;;;5076350;28;20020;-72
2021/05/19 07:40:39;;;;;;;7.33;3.93;;;;;;;;;;5071183;28;20120;-72
2021/05/19 07:43:04;;;;;;;9.03;4.00;;;;;;;;;;5084637;28;20067;-72
2021/05/19 07:45:30;;;;;;;7.40;4.10;;;;;;;;;;5072457;28;20093;-72
2021/05/19 07:47:55;;;;;;;7.73;3.87;;;;;;;;;;5071605;28;20024;-72
2021/05/19 07:50:20;;;;;;;8.60;4.70;;;;;;;;;;5074467;28;20016;-72
2021/05/19 07:52:46;;;;;;;8.07;3.90;;;;;;;;;;5079695;28;20073;-72
2021/05/19 07:55:21;;;;;;;8.00;3.33;;;;;;;;;;5075668;28;20020;-72
2021/05/19 07:57:54;;;;;;;6.77;3.17;;;;;;;;;;5075630;28;20039;-72
2021/05/19 08:02:51;;;;;;;8.55;4.05;;;;;;;;;;5078717;28;20040;-72
2021/05/19 08:05:16;;;;;;;9.47;4.30;;;;;;;;;;5075217;28;20032;-73
2021/05/19 08:07:42;;;;;;;10.33;4.00;;;;;;;;;;5078052;28;20099;-73
2021/05/19 08:10:07;;;;;;;12.10;3.90;;;;;;;;;;5081647;28;20024;-73
2021/05/19 08:12:32;;;;;;;7.83;3.90;;;;;;;;;;5075848;28;20395;-73
2021/05/19 08:14:58;;;;;;;8.87;4.17;;;;;;;;;;5074951;28;20024;-73
2021/05/19 08:17:23;;;;;;;8.43;4.37;;;;;;;;;;5078123;28;20094;-73
2021/05/19 08:19:48;;;;;;;11.17;4.97;;;;;;;;;;5091571;28;20031;-73
2021/05/19 08:22:14;;;;;;;9.40;4.53;;;;;;;;;;5076150;28;20533;-73
2021/05/19 08:24:43;;;;;;;11.93;5.07;;;;;;;;;;5077948;28;20039;-73
2021/05/19 08:27:08;;;;;;;11.93;4.80;;;;;;;;;;5072632;28;20031;-73
2021/05/19 08:29:34;;;;;;;12.43;5.00;;;;;;;;;;5062149;28;20033;-73
2021/05/19 08:31:59;;;;;;;15.20;5.27;;;;;;;;;;5074556;28;20081;-73
2021/05/19 08:34:25;;;;;;;11.07;5.43;;;;;;;;;;5082620;28;20024;-73
2021/05/19 08:36:50;;;;;;;12.07;5.57;;;;;;;;;;5074180;28;20104;-73
2021/05/19 08:39:16;;;;;;;13.87;5.00;;;;;;;;;;5084679;28;20031;-73
2021/05/19 08:41:45;;;;;;;15.07;5.47;;;;;;;;;;5077531;28;20032;-73
2021/05/19 08:44:10;;;;;;;10.67;4.80;;;;;;;;;;5084001;28;20021;-73
2021/05/19 08:46:41;;;;;;;10.47;5.50;;;;;;;;;;5073977;28;20035;-73
2021/05/19 08:49:08;;;;;;;9.93;4.55;;;;;;;;;;5067472;28;20403;-73
2021/05/19 08:51:33;;;;;;;11.13;4.90;;;;;;;;;;5076019;28;20062;-72
2021/05/19 08:53:59;;;;;;;12.93;5.30;;;;;;;;;;5081456;28;20020;-73
2021/05/19 08:56:24;;;;;;;11.63;5.10;;;;;;;;;;5073979;28;20104;-72
2021/05/19 08:58:49;;;;;;;12.83;5.37;;;;;;;;;;5080390;28;20034;-72
2021/05/19 09:01:21;;;;;;;9.77;4.70;;;;;;;;;;5073671;28;20372;-72
2021/05/19 09:04:00;;;;;;;9.23;4.45;;;;;;;;;;5079652;28;20044;-72
2021/05/19 09:06:26;;;;;;;9.57;4.33;;;;;;;;;;5061212;28;20067;-72
2021/05/19 09:08:51;;;;;;;7.97;4.00;;;;;;;;;;5077892;28;20452;-73
2021/05/19 09:11:16;;;;;;;9.45;4.43;;;;;;;;;;5074400;28;20046;-73
2021/05/19 09:13:45;;;;;;;10.63;4.72;;;;;;;;;;5075460;28;20024;-73
2021/05/19 09:16:14;;;;;;;9.82;4.32;;;;;;;;;;5079196;28;20031;-73
2021/05/19 09:18:49;;;;;;;9.23;4.20;;;;;;;;;;5080405;28;20025;-74
2021/05/19 09:21:36;;;;;;;11.05;4.35;;;;;;;;;;5078160;28;20024;-73
2021/05/19 09:24:03;;;;;;;12.43;5.00;;;;;;;;;;5082872;28;20024;-73
2021/05/19 09:26:29;;;;;;;8.68;4.45;;;;;;;;;;5080614;28;20028;-73
2021/05/19 09:29:14;;;;;;;8.88;5.07;;;;;;;;;;5076564;28;20031;-73
2021/05/19 09:31:48;;;;;;;9.38;5.10;;;;;;;;;;5072317;28;20024;-73
2021/05/19 09:34:21;;;;;;;7.75;4.28;;;;;;;;;;5077067;28;20016;-73
2021/05/19 09:36:46;;;;;;;10.70;4.50;;;;;;;;;;5077394;28;20021;-73
2021/05/19 09:39:11;;;;;;;7.00;3.67;;;;;;;;;;5073399;28;20139;-73
2021/05/19 09:41:37;;;;;;;9.68;3.80;;;;;;;;;;5072991;28;20017;-73
2021/05/19 09:44:04;;;;;;;8.52;4.35;;;;;;;;;;5074537;28;20021;-73
2021/05/19 09:49:11;;;;;;;8.73;4.50;;;;;;;;;;5073721;28;20025;-73
2021/05/19 09:51:37;;;;;;;11.00;4.90;;;;;;;;;;5078625;28;20017;-73
2021/05/19 09:54:03;;;;;;;11.10;4.25;;;;;;;;;;5073678;28;20522;-73
2021/05/19 09:56:28;;;;;;;10.98;4.93;;;;;;;;;;5077418;28;20561;-73
2021/05/19 09:58:53;;;;;;;8.38;4.18;;;;;;;;;;5073483;28;20074;-73
2021/05/19 10:01:19;;;;;;;7.75;3.95;;;;;;;;;;5074606;28;20016;-73
2021/05/19 10:03:44;;;;;;;7.20;3.72;;;;;;;;;;5072913;28;20508;-73
2021/05/19 10:08:35;;;;;;;7.80;4.28;;;;;;;;;;5073054;28;20473;-74
2021/05/19 10:11:01;;;;;;;8.55;3.67;;;;;;;;;;5078169;28;20031;-74
2021/05/19 10:13:28;;;;;;;6.07;3.13;;;;;;;;;;5079857;28;20025;-74
2021/05/19 10:15:55;;;;;;;7.10;3.53;;;;;;;;;;5070103;28;20063;-74
2021/05/19 10:18:21;;;;;;;7.43;3.30;;;;;;;;;;5073674;28;20041;-74
2021/05/19 10:20:50;;;;;;;7.45;3.30;;;;;;;;;;5071506;28;20024;-74
2021/05/19 10:23:22;;;;;;;9.52;3.03;;;;;;;;;;5072621;28;20025;-74
2021/05/19 10:25:47;;;;;;;;;;;;;;;;;;5072854;28;20066;-74
2021/05/19 10:28:13;;;;;;;8.04;3.28;;;;;;;;;;5074787;28;19991;-74
2021/05/19 10:30:40;;;;;;;5.75;2.95;;;;;;;;;;5069178;28;20029;-74
2021/05/19 10:33:06;;;;;;;7.75;2.97;;;;;;;;;;5068654;28;20482;-73
2021/05/19 10:35:35;;;;;;;7.20;3.10;;;;;;;;;;5072327;28;20028;-73
2021/05/19 10:38:16;;;;;;;5.57;3.00;;;;;;;;;;5071179;28;20032;-73
2021/05/19 10:40:47;;;;;;;11.45;3.95;;;;;;;;;;5057352;28;20032;-73
2021/05/19 10:43:12;;;;;;;7.25;4.03;;;;;;;;;;5066752;28;20177;-73
2021/05/19 10:45:47;;;;;;;6.22;3.10;;;;;;;;;;5063719;28;20503;-73
2021/05/19 10:48:32;;;;;;;6.30;2.25;;;;;;;;;;5078281;28;20019;-73
2021/05/19 10:51:03;;;;;;;4.35;1.95;;;;;;;;;;5074206;28;20469;-72
2021/05/19 10:59:11;;;;;;;4.60;2.45;;;;;;;;;;5081922;28;20595;-73
2021/05/19 11:01:36;;;;;;;7.07;2.20;;;;;;;;;;5070910;28;20103;-73
2021/05/19 11:04:12;;;;;;;4.00;1.50;;;;;;;;;;5074935;28;20034;-73
2021/05/19 11:06:55;;;;;;;4.38;2.08;;;;;;;;;;5074695;28;20393;-72
2021/05/19 11:09:21;;;;;;;5.03;2.20;;;;;;;;;;5069935;28;20464;-72
2021/05/19 11:11:47;;;;;;;5.35;2.00;;;;;;;;;;5080367;28;20089;-72
2021/05/19 11:14:22;;;;;;;4.80;1.70;;;;;;;;;;5072037;28;20036;-72
2021/05/19 11:16:53;;;;;;;3.25;1.50;;;;;;;;;;5075603;28;20024;-72
2021/05/19 11:19:25;;;;;;;3.67;1.73;;;;;;;;;;5078219;28;20017;-72
2021/05/19 11:21:57;;;;;;;3.15;1.55;;;;;;;;;;5078260;28;20532;-72
2021/05/19 11:24:26;;;;;;;3.65;1.50;;;;;;;;;;5071159;28;20020;-72
2021/05/19 11:26:51;;;;;;;6.55;1.60;;;;;;;;;;5068376;28;20017;-72
2021/05/19 11:29:17;;;;;;;3.72;1.30;;;;;;;;;;5066427;28;20029;-73
2021/05/19 11:31:44;;;;;;;4.63;1.60;;;;;;;;;;5066433;28;20433;-73
2021/05/19 11:34:10;;;;;;;2.70;0.93;;;;;;;;;;5066651;28;20510;-73
2021/05/19 11:36:43;;;;;;;4.72;1.60;;;;;;;;;;5070181;28;20017;-72
2021/05/19 11:39:26;;;;;;;3.25;1.60;;;;;;;;;;5074708;28;20087;-72
2021/05/19 11:42:08;;;;;;;5.00;1.90;;;;;;;;;;5074258;28;20113;-72
2021/05/19 11:44:36;;;;;;;4.63;1.70;;;;;;;;;;5073647;28;20020;-72
2021/05/19 11:47:02;;;;;;;4.95;1.77;;;;;;;;;;5070443;28;20012;-72
2021/05/19 11:49:27;;;;;;;4.03;1.20;;;;;;;;;;5069561;28;20443;-72
2021/05/19 11:51:53;;;;;;;4.90;1.35;;;;;;;;;;5075994;28;20043;-72
2021/05/19 11:54:19;;;;;;;3.28;1.60;;;;;;;;;;5075429;28;20021;-72
2021/05/19 11:56:46;;;;;;;2.25;1.15;;;;;;;;;;5071935;28;20055;-72
2021/05/19 11:59:29;;;;;;;3.28;1.08;;;;;;;;;;5071623;28;20024;-72
2021/05/19 12:01:54;;;;;;;1.42;0.50;;;;;;;;;;5072041;28;20476;-72
2021/05/19 12:04:20;;;;;;;1.52;0.80;;;;;;;;;;5073260;28;20017;-73
2021/05/19 12:06:49;;;;;;;0.80;0.50;;;;;;;;;;5072222;28;20024;-74
2021/05/19 12:09:18;;;;;;;1.63;0.90;;;;;;;;;;5071533;28;20443;-73
2021/05/19 12:11:44;;;;;;;1.77;0.90;;;;;;;;;;5075120;28;20049;-73
2021/05/19 12:14:12;;;;;;;2.88;1.02;;;;;;;;;;5070836;28;20372;-73
2021/05/19 12:16:40;;;;;;;3.05;1.05;;;;;;;;;;5068383;28;20375;-73
2021/05/19 12:19:10;;;;;;;1.90;1.10;;;;;;;;;;5075556;28;20032;-73
2021/05/19 12:21:48;;;;;;;2.40;1.20;;;;;;;;;;5075581;28;20016;-73
2021/05/19 12:24:16;;;;;;;2.80;1.08;;;;;;;;;;5070042;28;20086;-73
2021/05/19 12:26:42;;;;;;;3.67;1.02;;;;;;;;;;5076849;28;20012;-73
2021/05/19 12:29:26;;;;;;;3.70;1.50;;;;;;;;;;5072073;28;20028;-73
2021/05/19 12:31:51;;;;;;;4.28;1.90;;;;;;;;;;5076375;28;20016;-72
2021/05/19 12:34:17;;;;;;;5.25;1.75;;;;;;;;;;5079108;28;20163;-72
2021/05/19 12:36:42;;;;;;;3.90;1.90;;;;;;;;;;5071911;28;20043;-72
2021/05/19 12:39:08;;;;;;;3.90;2.28;;;;;;;;;;5086833;28;20028;-72
2021/05/19 12:41:44;;;;;;;4.43;2.30;;;;;;;;;;5081307;28;20052;-72
2021/05/19 12:44:11;;;;;;;6.05;2.90;;;;;;;;;;5079066;28;20039;-72
2021/05/19 12:46:36;;;;;;;5.57;2.83;;;;;;;;;;5069874;28;20028;-72
2021/05/19 12:49:06;;;;;;;7.25;3.20;;;;;;;;;;5073063;28;20012;-72
2021/05/19 12:51:47;;;;;;;6.87;3.77;;;;;;;;;;5073841;28;20372;-71
2021/05/19 12:54:16;;;;;;;6.43;3.57;;;;;;;;;;5074311;28;20036;-71
2021/05/19 12:56:42;;;;;;;8.60;2.63;;;;;;;;;;5063895;28;20016;-71
2021/05/19 12:59:10;;;;;;;3.03;1.50;;;;;;;;;;5074615;28;20042;-72
2021/05/19 13:01:42;;;;;;;4.37;1.77;;;;;;;;;;5075420;28;20122;-71
2021/05/19 13:04:07;;;;;;;;;;;;;;;;;;5069783;28;20405;-71
2021/05/19 13:06:32;;;;;;;6.47;2.50;;;;;;;;;;5074149;28;20003;-70
2021/05/19 13:08:59;;;;;;;8.40;3.30;;;;;;;;;;5074533;28;20024;-70
2021/05/19 13:11:26;;;;;;;5.43;3.23;;;;;;;;;;5073092;28;20139;-70
2021/05/19 13:13:51;;;;;;;4.90;2.80;;;;;;;;;;5082898;28;20103;-70
2021/05/19 13:16:17;;;;;;;4.90;2.63;;;;;;;;;;5073513;28;20432;-70
2021/05/19 13:21:28;;;;;;;4.23;1.80;;;;;;;;;;5075067;28;20047;-73
2021/05/19 13:24:02;;;;;;;3.53;1.40;;;;;;;;;;5073340;28;20032;-73
2021/05/19 13:26:28;;;;;;;2.00;1.10;;;;;;;;;;5074036;28;20059;-71
2021/05/19 13:28:55;;;;;;;2.67;1.30;;;;;;;;;;5074310;28;20052;-71
2021/05/19 13:31:22;;;;;;;3.23;1.23;;;;;;;;;;5073982;28;20466;-70
2021/05/19 13:36:58;;;;;;;6.17;1.80;;;;;;;;;;5072816;28;20054;-71
2021/05/19 13:39:25;;;;;;;5.60;1.90;;;;;;;;;;5075231;28;20028;-71
2021/05/19 13:41:55;;;;;;;4.10;1.97;;;;;;;;;;5076942;28;20016;-71
2021/05/19 13:44:21;;;;;;;5.83;2.43;;;;;;;;;;5073665;28;20025;-70
2021/05/19 13:46:50;;;;;;;6.97;1.93;;;;;;;;;;5073030;28;20016;-70
2021/05/19 13:49:24;;;;;;;5.10;2.00;;;;;;;;;;5073932;28;20048;-71
2021/05/19 13:51:54;;;;;;;4.93;2.43;;;;;;;;;;5085137;28;20032;-71
2021/05/19 13:54:19;;;;;;;6.57;2.60;;;;;;;;;;5060057;28;20040;-71
2021/05/19 13:56:45;;;;;;;6.53;2.63;;;;;;;;;;5071500;28;20021;-71
2021/05/19 13:59:11;;;;;;;7.77;2.43;;;;;;;;;;5073517;28;20034;-71
2021/05/19 14:01:37;;;;;;;5.57;2.80;;;;;;;;;;5083833;28;20027;-71
2021/05/19 14:04:03;;;;;;;5.73;2.43;;;;;;;;;;5066062;28;20032;-71
2021/05/19 14:06:28;;;;;;;4.77;2.47;;;;;;;;;;5072834;28;20112;-70
2021/05/19 14:08:54;;;;;;;4.63;2.20;;;;;;;;;;5057279;28;20060;-71
2021/05/19 14:11:21;;;;;;;5.67;2.53;;;;;;;;;;5072985;28;20036;-71
2021/05/19 14:13:56;;;;;;;5.90;2.63;;;;;;;;;;5079408;28;20070;-71
2021/05/19 14:29:39;;;;;;;5.03;1.80;;;;;;;;;;5077573;28;20031;-71
2021/05/19 14:32:07;;;;;;;4.90;2.13;;;;;;;;;;5073158;28;20028;-71
2021/05/19 14:34:32;;;;;;;6.47;1.70;;;;;;;;;;5072140;28;20380;-71
2021/05/19 15:01:25;;;;;;;7.80;2.90;;;;;;;;;;5076202;28;20071;-71
2021/05/19 15:03:51;;;;;;;4.10;1.87;;;;;;;;;;5081725;28;20044;-71
2021/05/19 15:06:17;;;;;;;3.13;1.87;;;;;;;;;;5078500;28;20083;-71
2021/05/19 15:08:42;;;;;;;2.97;1.50;;;;;;;;;;5072098;28;20036;-71
2021/05/19 15:11:08;;;;;;;3.37;1.50;;;;;;;;;;5073108;28;20074;-71
2021/05/19 15:13:33;;;;;;;2.80;1.50;;;;;;;;;;5072138;28;20043;-71
2021/05/19 15:15:59;;;;;;;4.87;1.20;;;;;;;;;;5071313;28;20067;-71
2021/05/19 15:18:24;;;;;;;2.73;1.40;;;;;;;;;;5071674;28;20032;-71
2021/05/19 15:20:49;;;;;;;3.57;1.60;;;;;;;;;;5075591;28;20023;-71
2021/05/19 15:23:15;;;;;;;2.33;1.10;;;;;;;;;;5072053;28;20028;-71
2021/05/19 15:25:40;;;;;;;2.37;1.20;;;;;;;;;;5071647;28;20452;-71
2021/05/19 15:28:06;;;;;;;2.53;1.10;;;;;;;;;;5080104;28;20549;-71
2021/05/19 15:30:31;;;;;;;2.90;1.33;;;;;;;;;;5079728;28;20449;-71